• Join FlightAware (Why Join?)
  • Login
  • US Flag 
08:35AM EDT


 

Airport Tracker/Info


-or-


 

Live Flight TrackerFlight Track Log ✈ N589H ✈ 20-Jan-2014 ✈ KLZU - KPIE

Flight Track Log - Related Links

Times and Time Zones

All times are in EST time to prevent confusion due to time zone crossing. See the N589H flight status page for this flight to view local times or setup timezone preferences in your user account.

Time Position Orientation Groundspeed Altitude Reporting Facility
EST Latitude Longitude Course Direction KTS MPH feet Rate Location/Type
04:53PM 33.9333 -84.0667 253° West 186 214 4,800  Level Atlanta TRACON
04:54PM 33.9167 -84.1333 253° West 202 232 5,000  Climbing Atlanta TRACON
04:55PM 33.9000 -84.2000 253° West 202 232 4,900 -60 Descending Atlanta TRACON
04:56PM 33.8833 -84.2667 253° West 200 230 4,900  Level Atlanta TRACON
04:57PM 33.8500 -84.3167 231° Southwest 202 232 4,900 120 Level Atlanta TRACON
04:58PM 33.8167 -84.3667 231° Southwest 197 227 5,200 540 Climbing Atlanta TRACON
04:59PM 33.7500 -84.3833 192° South 266 306 6,000 360 Climbing Atlanta TRACON
05:00PM 33.6667 -84.4000 189° South 283 326 6,000  Level Atlanta TRACON
05:01PM 33.6000 -84.4000 180° South 287 330 6,000  Level Atlanta TRACON
05:02PM 33.5167 -84.4000 180° South 271 312 6,000  Level Atlanta TRACON
05:03PM 33.4500 -84.3667 157° South 289 333 6,000 60 Level Atlanta TRACON
05:04PM 33.3833 -84.3167 148° Southeast 287 330 6,200 540 Climbing Atlanta TRACON
05:05PM 33.3639 -84.2950 137° Southeast 288 331 6,800 1,860 Climbing Atlanta Center
05:06PM 33.3014 -84.2303 139° Southeast 288 331 9,100 2,100 Climbing Atlanta Center
05:07PM 33.2494 -84.1756 139° Southeast 269 310 11,000 900 Climbing Atlanta Center
05:08PM 33.1722 -84.1531 166° South 258 297 11,000 900 Level Atlanta Center
05:09PM 33.0950 -84.1256 163° South 284 327 12,800 1,920 Climbing Atlanta Center
05:10PM 33.0178 -84.0983 164° South 289 333 14,900 2,040 Climbing Atlanta Center
05:11PM 32.9489 -84.0933 177° South 272 313 16,900 1,800 Climbing Atlanta Center
05:12PM 32.8778 -84.0883 177° South 267 307 18,600 1,680 Climbing Atlanta Center
05:13PM 32.8006 -84.0858 178° South 267 307 20,300 1,740 Climbing Atlanta Center
05:14PM 32.7275 -84.0783 175° South 272 313 22,100 1,560 Climbing Atlanta Center
05:15PM 32.6525 -84.0733 177° South 272 313 23,500 1,320 Climbing Atlanta Center
05:16PM 32.5753 -84.0708 178° South 277 319 24,800 1,140 Climbing Atlanta Center
05:17PM 32.4958 -84.0633 175° South 283 326 25,800 1,020 Climbing Atlanta Center
05:18PM 32.4144 -84.0586 177° South 289 333 26,900 600 Climbing Atlanta Center
05:19PM 32.3269 -84.0536 177° South 301 346 27,000  Climbing Atlanta Center
05:20PM 32.2350 -84.0461 176° South 318 366 27,000  Level Atlanta Center
05:21PM 32.1389 -84.0414 178° South 333 383 27,000  Level Atlanta Center
05:22PM 32.0408 -84.0364 178° South 345 397 27,000  Level Atlanta Center
05:23PM 31.8608 -84.0228 176° South 360 414 27,000  Level Jacksonville Center
05:24PM 31.7608 -84.0167 177° South 360 414 27,000  Level Jacksonville Center
05:25PM 31.6583 -84.0106 177° South 365 420 27,000  Level Jacksonville Center
05:26PM 31.5481 -83.9919 172° South 365 420 27,000  Level Jacksonville Center
05:27PM 31.4503 -83.9519 161° South 371 427 27,000  Level Jacksonville Center
05:28PM 31.3503 -83.9142 162° South 371 427 27,000  Level Jacksonville Center
05:29PM 31.2483 -83.8767 163° South 377 434 27,000  Level Jacksonville Center
05:30PM 31.1461 -83.8369 162° South 382 440 27,000  Level Jacksonville Center
05:31PM 31.0461 -83.8019 163° South 382 440 27,000  Level Jacksonville Center
05:32PM 30.9442 -83.7644 162° South 377 434 27,000  Level Jacksonville Center
05:33PM 30.8422 -83.7272 163° South 377 434 27,000  Level Jacksonville Center
05:34PM 30.7400 -83.6903 163° South 377 434 27,000  Level Jacksonville Center
05:35PM 30.6400 -83.6508 161° South 377 434 27,000  Level Jacksonville Center
05:36PM 30.5464 -83.6186 163° South 377 434 27,000  Level Jacksonville Center
05:37PM 30.4442 -83.5842 164° South 377 434 27,000  Level Jacksonville Center
05:38PM 30.3422 -83.5447 162° South 382 440 27,000  Level Jacksonville Center
05:39PM 30.2378 -83.5081 163° South 382 440 27,000  Level Jacksonville Center
05:40PM 30.1336 -83.4689 162° South 382 440 27,000  Level Jacksonville Center
05:41PM 30.0317 -83.4347 164° South 382 440 27,000  Level Jacksonville Center
05:42PM 29.9272 -83.3958 162° South 382 440 27,000  Level Jacksonville Center
05:43PM 29.8250 -83.3619 164° South 382 440 27,000  Level Jacksonville Center
05:44PM 29.7208 -83.3231 162° South 382 440 27,000  Level Jacksonville Center
05:45PM 29.6167 -83.2892 164° South 382 440 27,000  Level Jacksonville Center
05:46PM 29.5061 -83.2458 161° South 382 440 27,000  Level Jacksonville Center
05:47PM 29.4122 -83.2144 164° South 377 434 27,000 -360 Level Jacksonville Center
05:48PM 29.3122 -83.1783 163° South 377 434 26,300 -1,080 Descending Jacksonville Center
05:49PM 29.2161 -83.1425 162° South 371 427 24,900 -1,620 Descending Jacksonville Center
05:50PM 29.1264 -83.1114 163° South 360 414 23,100 -1,980 Descending Jacksonville Center
05:51PM 29.0389 -83.0803 163° South 344 396 21,000 -2,100 Descending Jacksonville Center
05:52PM 28.9553 -83.0517 163° South 333 383 19,000 -2,040 Descending Jacksonville Center
05:53PM 28.8719 -83.0206 162° South 323 372 17,000 -2,220 Descending Jacksonville Center
05:54PM 28.7886 -82.9919 163° South 323 372 14,600 -1,980 Descending Jacksonville Center
05:57PM 28.6167 -82.9333 163° South 290 334 11,000 -1,200 Descending Tampa TRACON
05:58PM 28.5333 -82.9000 161° South 280 322 10,900 -600 Descending Tampa TRACON
05:59PM 28.4500 -82.8667 161° South 305 351 9,800 -1,140 Descending Tampa TRACON
06:00PM 28.3667 -82.8500 170° South 285 328 8,600 -1,260 Descending Tampa TRACON
06:01PM 28.3167 -82.8000 139° Southeast 241 277 7,300 -840 Descending Tampa TRACON
06:02PM 28.3000 -82.7500 111° Southeast 225 259 7,000 -240 Descending Tampa TRACON
06:03PM 28.2667 -82.6833 120° Southeast 213 245 6,900 -1,620 Descending Tampa TRACON
06:04PM 28.2000 -82.6833 180° South 236 272 3,800 -2,040 Descending Tampa TRACON
06:05PM 28.1500 -82.6667 164° South 184 212 2,900 -840 Descending Tampa TRACON
06:06PM 28.1000 -82.6667 180° South 179 206 2,200 -660 Descending Tampa TRACON
06:07PM 28.0500 -82.6833 196° South 169 194 1,600 -360 Descending Tampa TRACON
06:08PM 28.0167 -82.6833 180° South 118 136 1,500 -360 Descending Tampa TRACON
06:09PM 27.9667 -82.7000 196° South 124 143 900 -600 Descending Tampa TRACON
06:10PM 27.9333 -82.7000 180° South 125 144 400 -540 Descending Tampa TRACON